Time;durP1;ratioP1;P1;durP2;ratioP2;P2;SDS_P1;SDS_P2;PMS_P1;PMS_P2;Temp;Humidity;BMP_temperature;BMP_pressure;BME280_temperature;BME280_humidity;BME280_pressure;Samples;Min_cycle;Max_cycle;Signal;HPM_P1;HPM_P2
2022/06/02 00:02:06;;;;;;;5.22;2.85;;;;;;;17.51;63.85;100223.16;5033079;28;20057;-56
2022/06/02 00:04:49;;;;;;;2.83;2.47;;;;;;;17.54;63.84;100228.25;5013290;28;20034;-55
2022/06/02 00:07:52;;;;;;;4.18;2.70;;;;;;;17.61;63.61;100234.75;5012321;28;20041;-55
2022/06/02 00:10:33;;;;;;;5.68;3.00;;;;;;;17.63;63.25;100221.88;5013274;28;20046;-57
2022/06/02 00:13:10;;;;;;;4.88;2.58;;;;;;;17.48;63.54;100207.22;5012812;28;20036;-55
2022/06/02 00:15:39;;;;;;;5.25;2.92;;;;;;;17.61;63.68;100229.31;5013264;28;20058;-55
2022/06/02 00:18:12;;;;;;;7.65;3.45;;;;;;;17.76;63.22;100228.72;5029959;28;20125;-55
2022/06/02 00:20:44;;;;;;;6.30;3.47;;;;;;;17.67;64.04;100233.22;5032455;28;20047;-57
2022/06/02 00:23:22;;;;;;;5.35;3.25;;;;;;;17.67;63.86;100235.09;5032993;28;20057;-58
2022/06/02 00:25:53;;;;;;;8.73;4.30;;;;;;;17.57;64.30;100233.31;5032400;28;20095;-57
2022/06/02 00:28:30;;;;;;;6.38;3.92;;;;;;;17.65;63.96;100235.25;5032942;28;20120;-56
2022/06/02 00:31:05;;;;;;;4.55;3.30;;;;;;;17.54;64.16;100238.22;5032909;28;20033;-57
2022/06/02 00:33:49;;;;;;;9.02;3.67;;;;;;;17.47;64.20;100230.72;5032190;28;20095;-56
2022/06/02 00:36:23;;;;;;;6.13;3.60;;;;;;;17.46;64.41;100234.44;5031753;28;20045;-56
2022/06/02 00:38:50;;;;;;;8.18;4.18;;;;;;;17.38;64.79;100236.28;5032788;28;20033;-60
2022/06/02 00:41:24;;;;;;;6.63;3.53;;;;;;;17.27;64.79;100197.63;5032563;28;20028;-54
2022/06/02 00:44:15;;;;;;;5.50;3.40;;;;;;;17.48;65.00;100226.19;5032448;28;20039;-58
2022/06/02 00:46:53;;;;;;;5.65;3.88;;;;;;;17.56;64.33;100228.94;5032733;28;20485;-54
2022/06/02 00:49:25;;;;;;;7.15;4.05;;;;;;;17.59;64.30;100214.22;5032415;28;20021;-64
2022/06/02 00:52:11;;;;;;;14.90;4.45;;;;;;;17.61;64.47;100213.06;5032641;28;20033;-53
2022/06/02 00:57:59;;;;;;;4.85;4.18;;;;;;;17.48;64.57;100209.94;5030570;28;20073;-58
2022/06/02 01:00:35;;;;;;;6.53;4.07;;;;;;;17.17;65.11;100183.34;5031644;28;20029;-54
2022/06/02 01:03:11;;;;;;;6.88;4.10;;;;;;;17.14;65.46;100216.16;5032420;28;20057;-56
2022/06/02 01:06:07;;;;;;;7.55;4.50;;;;;;;17.07;65.94;100224.88;5032285;28;20037;-56
2022/06/02 01:08:45;;;;;;;4.93;3.88;;;;;;;16.98;66.26;100217.69;5031539;28;20061;-57
2022/06/02 01:11:16;;;;;;;12.95;5.38;;;;;;;16.84;66.65;100216.38;5031864;28;20045;-54
2022/06/02 01:13:49;;;;;;;7.70;4.60;;;;;;;16.68;67.31;100206.25;5031995;28;20034;-52
2022/06/02 01:16:27;;;;;;;7.20;5.18;;;;;;;16.83;67.20;100224.63;5032143;28;20061;-59
2022/06/02 01:19:06;;;;;;;6.43;4.93;;;;;;;16.81;67.35;100226.63;5030649;28;20095;-58
2022/06/02 01:21:50;;;;;;;7.68;5.50;;;;;;;16.85;67.02;100225.31;5031959;28;20025;-56
2022/06/02 01:24:34;;;;;;;8.82;5.40;;;;;;;16.84;67.08;100229.88;5031279;28;20090;-57
2022/06/02 01:27:11;;;;;;;9.80;5.75;;;;;;;16.77;67.68;100215.28;5030003;28;20072;-59
2022/06/02 01:29:53;;;;;;;8.00;5.28;;;;;;;16.87;67.39;100226.88;5031646;28;20034;-61
2022/06/02 01:32:29;;;;;;;9.82;5.95;;;;;;;16.86;67.29;100213.47;5032107;28;20029;-57
2022/06/02 01:34:58;;;;;;;10.25;5.32;;;;;;;16.83;67.37;100208.41;5031617;28;20037;-53
2022/06/02 01:37:32;;;;;;;7.18;5.53;;;;;;;16.89;67.28;100213.19;5030171;28;20056;-55
2022/06/02 01:40:35;;;;;;;6.75;5.72;;;;;;;17.01;67.14;100219.25;5031378;28;20069;-55
2022/06/02 01:43:15;;;;;;;7.22;5.93;;;;;;;16.92;67.01;100212.88;5030814;28;20539;-58
2022/06/02 01:45:58;;;;;;;6.32;5.22;;;;;;;16.99;66.83;100208.56;5031470;28;20048;-57
2022/06/02 01:48:35;;;;;;;7.93;5.55;;;;;;;17.00;67.09;100209.41;5031102;28;20098;-59
2022/06/02 01:51:38;;;;;;;11.95;5.82;;;;;;;17.05;66.83;100221.47;5031621;28;20037;-54
2022/06/02 01:54:32;;;;;;;7.90;5.43;;;;;;;17.13;66.72;100222.56;5028025;28;20526;-52
2022/06/02 01:57:10;;;;;;;8.65;5.93;;;;;;;17.20;66.55;100221.75;5029896;28;20112;-55
2022/06/02 01:59:57;;;;;;;8.85;5.70;;;;;;;17.33;66.10;100218.63;5030694;28;20029;-53
2022/06/02 02:02:47;;;;;;;10.00;5.85;;;;;;;17.64;64.58;100217.31;5030465;28;20037;-61
2022/06/02 02:05:19;;;;;;;8.15;6.28;;;;;;;17.70;63.94;100219.34;5030808;28;20063;-58
2022/06/02 02:07:54;;;;;;;10.88;5.32;;;;;;;17.78;63.38;100214.00;5030748;28;20079;-57
2022/06/02 02:10:39;;;;;;;6.47;4.70;;;;;;;18.03;62.63;100221.41;5031104;28;20067;-55
2022/06/02 02:13:25;;;;;;;5.82;4.53;;;;;;;18.15;61.70;100220.13;5030107;28;20025;-56
2022/06/02 02:16:18;;;;;;;6.25;4.72;;;;;;;18.28;61.61;100213.38;5030518;28;20489;-58
2022/06/02 02:18:52;;;;;;;7.25;4.30;;;;;;;18.12;61.35;100203.34;5028378;28;20076;-54
2022/06/02 02:21:30;;;;;;;7.15;4.75;;;;;;;18.26;61.24;100209.97;5028451;28;20033;-56
2022/06/02 02:24:33;;;;;;;9.05;4.57;;;;;;;18.36;61.15;100216.13;5030389;28;20519;-54
2022/06/02 02:27:13;;;;;;;7.85;5.05;;;;;;;18.35;61.05;100220.69;5029692;28;20033;-53
2022/06/02 02:29:51;;;;;;;7.68;4.57;;;;;;;18.29;60.83;100209.66;5029858;28;20128;-54
2022/06/02 02:32:41;;;;;;;10.40;5.18;;;;;;;18.41;60.54;100219.19;5028680;28;20055;-55
2022/06/02 02:35:21;;;;;;;6.93;4.57;;;;;;;18.55;60.21;100219.53;5028962;28;20064;-53
2022/06/02 02:38:05;;;;;;;6.20;4.18;;;;;;;18.67;59.50;100214.63;5029254;28;20033;-52
2022/06/02 02:40:40;;;;;;;6.28;3.78;;;;;;;18.69;59.06;100180.91;5030157;28;20184;-50
2022/06/02 02:43:24;;;;;;;6.07;4.45;;;;;;;19.11;58.53;100191.81;5029803;28;20029;-56
2022/06/02 02:45:59;;;;;;;8.00;4.32;;;;;;;19.20;57.24;100182.63;5029725;28;20033;-57
2022/06/02 02:48:57;;;;;;;7.88;4.45;;;;;;;19.50;56.88;100185.63;5028349;28;20052;-63
2022/06/02 02:51:52;;;;;;;4.85;4.18;;;;;;;19.51;56.57;100188.19;5029943;28;20436;-55
2022/06/02 02:54:35;;;;;;;4.93;3.83;;;;;;;19.37;56.98;100172.59;5021265;28;20061;-57
2022/06/02 02:57:09;;;;;;;7.03;4.00;;;;;;;19.30;57.05;100174.31;5029480;28;20148;-55
2022/06/02 02:59:51;;;;;;;4.32;3.92;;;;;;;19.35;56.91;100166.47;5029892;28;20034;-55
2022/06/02 03:02:29;;;;;;;6.65;4.05;;;;;;;19.35;56.48;100142.03;5028716;28;20078;-58
2022/06/02 03:05:23;;;;;;;8.05;4.10;;;;;;;19.73;55.62;100168.56;5029655;28;20381;-55
2022/06/02 03:07:49;;;;;;;4.32;3.85;;;;;;;20.17;53.92;100154.47;5029745;28;20389;-56
2022/06/02 03:10:37;;;;;;;5.65;4.15;;;;;;;20.77;52.55;100165.63;5029622;28;20034;-56
2022/06/02 03:13:23;;;;;;;6.97;4.50;;;;;;;21.44;50.99;100165.88;5029231;28;20116;-55
2022/06/02 03:15:57;;;;;;;6.32;4.47;;;;;;;21.99;49.46;100162.84;4983478;28;1319256;-55
2022/06/02 03:18:38;;;;;;;6.53;4.00;;;;;;;22.35;49.00;100167.47;5030533;28;20385;-54
2022/06/02 03:21:32;;;;;;;9.07;4.43;;;;;;;22.80;47.44;100152.84;5030449;28;20049;-56
2022/06/02 03:24:43;;;;;;;4.47;3.70;;;;;;;23.69;46.53;100149.69;5029958;28;20033;-57
2022/06/02 03:27:35;;;;;;;5.63;4.13;;;;;;;24.20;43.77;100146.53;5019919;28;20051;-53
2022/06/02 03:30:13;;;;;;;9.40;4.20;;;;;;;24.22;42.76;100144.44;5030175;28;20037;-53
2022/06/02 03:32:44;;;;;;;6.53;3.58;;;;;;;24.70;41.77;100147.25;5029896;28;20037;-57
2022/06/02 03:35:37;;;;;;;4.85;3.42;;;;;;;25.30;42.32;100147.25;5028291;28;20389;-55
2022/06/02 03:38:05;;;;;;;4.68;3.70;;;;;;;25.67;39.62;100148.69;5029808;28;20040;-56
2022/06/02 03:40:51;;;;;;;4.40;4.00;;;;;;;26.55;38.17;100162.84;5030062;28;20029;-55
2022/06/02 03:43:34;;;;;;;5.78;3.60;;;;;;;27.31;37.54;100160.97;5028254;28;20029;-54
2022/06/02 03:46:02;;;;;;;8.73;3.72;;;;;;;27.65;34.81;100161.47;5029686;28;20044;-53
2022/06/02 03:49:00;;;;;;;6.13;3.65;;;;;;;28.56;33.87;100161.81;5032792;28;20042;-56
2022/06/02 03:52:01;;;;;;;5.63;3.53;;;;;;;29.13;34.46;100168.75;5013327;28;20080;-52
2022/06/02 03:54:55;;;;;;;5.63;3.55;;;;;;;29.81;33.11;100177.47;5006751;28;20045;-55
2022/06/02 03:57:58;;;;;;;7.07;3.40;;;;;;;30.42;31.74;100173.44;5015785;28;20507;-54
2022/06/02 04:00:28;;;;;;;5.60;3.33;;;;;;;30.63;30.01;100169.16;5033665;28;20045;-53
2022/06/02 04:02:56;;;;;;;6.30;3.45;;;;;;;30.87;29.40;100171.78;5033105;28;20034;-56
2022/06/02 04:05:27;;;;;;;4.65;3.60;;;;;;;31.19;28.39;100171.19;5032959;28;20025;-55
2022/06/02 04:08:03;;;;;;;7.80;3.83;;;;;;;31.84;27.89;100170.72;5033003;28;20068;-54
2022/06/02 04:10:31;;;;;;;6.15;3.63;;;;;;;32.11;27.42;100167.16;5032958;28;20037;-51
2022/06/02 04:16:05;;;;;;;6.57;3.60;;;;;;;33.32;25.49;100188.25;5033233;28;20075;-59
2022/06/02 04:18:54;;;;;;;9.00;3.60;;;;;;;33.86;26.05;100189.97;5012043;28;20171;-61
2022/06/02 04:21:54;;;;;;;5.63;3.38;;;;;;;34.60;25.53;100183.56;5013376;28;20068;-56
2022/06/02 04:24:30;;;;;;;8.82;3.70;;;;;;;34.96;23.88;100182.72;5016863;28;20033;-57
2022/06/02 04:27:20;;;;;;;5.18;3.22;;;;;;;35.33;23.05;100188.00;5032965;28;20025;-59
2022/06/02 04:30:03;;;;;;;6.85;3.58;;;;;;;35.59;22.68;100189.91;5032431;28;20477;-57
2022/06/02 04:32:41;;;;;;;5.95;3.83;;;;;;;36.06;22.59;100177.50;5032602;28;20026;-51
2022/06/02 04:36:02;;;;;;;5.82;3.55;;;;;;;36.59;21.23;100184.44;5032894;28;20033;-57
2022/06/02 04:38:42;;;;;;;5.82;3.50;;;;;;;37.37;20.51;100174.53;4991071;28;20069;-57
2022/06/02 04:41:40;;;;;;;7.18;3.90;;;;;;;37.88;20.45;100175.91;4990717;28;20038;-56
2022/06/02 04:44:09;;;;;;;5.68;3.63;;;;;;;38.34;19.23;100174.44;4993413;28;20058;-60
2022/06/02 04:47:15;;;;;;;6.15;3.58;;;;;;;39.05;19.26;100188.44;5010481;28;20044;-58
2022/06/02 04:50:04;;;;;;;10.43;3.60;;;;;;;39.50;18.61;100192.69;5010155;28;20046;-55
2022/06/02 04:52:53;;;;;;;7.70;3.72;;;;;;;39.45;17.44;100182.44;4994304;28;20330;-58
2022/06/02 04:55:40;;;;;;;5.85;4.03;;;;;;;40.16;17.16;100186.03;5010663;28;20478;-58
2022/06/02 04:58:24;;;;;;;7.07;3.88;;;;;;;40.41;18.00;100181.00;5009802;28;20521;-55
2022/06/02 05:01:22;;;;;;;5.40;3.60;;;;;;;40.65;16.85;100180.69;5009316;28;20030;-59
2022/06/02 05:04:05;;;;;;;9.20;3.80;;;;;;;41.43;16.18;100175.88;5005940;28;20056;-56
2022/06/02 05:06:43;;;;;;;6.95;4.03;;;;;;;41.79;16.24;100177.69;5010278;28;20068;-58
2022/06/02 05:09:30;;;;;;;6.60;3.35;;;;;;;42.20;16.00;100175.59;5018599;28;20468;-61
2022/06/02 05:12:13;;;;;;;6.70;3.42;;;;;;;42.36;15.46;100172.31;5032114;28;20112;-58
2022/06/02 05:14:42;;;;;;;5.43;3.50;;;;;;;42.39;15.12;100161.19;5032175;28;20036;-57
2022/06/02 05:17:30;;;;;;;5.57;3.85;;;;;;;41.89;15.21;100166.09;5012020;28;20061;-55
2022/06/02 05:20:32;;;;;;;7.68;4.22;;;;;;;42.43;15.48;100159.38;5011978;28;20045;-50
2022/06/02 05:23:09;;;;;;;6.80;3.88;;;;;;;41.97;14.77;100158.03;5012256;28;20056;-55
2022/06/02 05:25:53;;;;;;;6.07;3.78;;;;;;;41.98;15.02;100145.63;5028509;28;20108;-58
2022/06/02 05:28:50;;;;;;;5.45;4.10;;;;;;;42.64;14.65;100144.66;5030942;28;20040;-58
2022/06/02 05:31:44;;;;;;;7.15;4.20;;;;;;;43.42;14.05;100153.25;5031324;28;20503;-55
2022/06/02 05:34:21;;;;;;;6.67;4.77;;;;;;;43.20;13.90;100148.66;5031868;28;20399;-55
2022/06/02 05:37:18;;;;;;;6.78;4.22;;;;;;;44.03;14.13;100152.88;5031161;28;20294;-55
2022/06/02 05:40:08;;;;;;;6.45;4.55;;;;;;;43.24;14.03;100161.75;5031482;28;20474;-56
2022/06/02 05:42:36;;;;;;;6.35;4.18;;;;;;;42.28;14.42;100160.72;5031739;28;20025;-54
2022/06/02 05:45:09;;;;;;;8.70;4.40;;;;;;;42.64;14.70;100160.72;5031230;28;20134;-53
2022/06/02 05:48:10;;;;;;;6.55;4.20;;;;;;;43.18;14.45;100152.63;5030944;28;20045;-59
2022/06/02 05:51:00;;;;;;;6.22;4.13;;;;;;;43.65;13.64;100164.19;5030788;28;20117;-60
2022/06/02 05:53:49;;;;;;;7.82;3.97;;;;;;;44.91;12.70;100162.56;5031086;28;20045;-60
2022/06/02 05:56:39;;;;;;;5.07;3.95;;;;;;;45.87;11.99;100143.56;5030913;28;20511;-54
2022/06/02 05:59:25;;;;;;;7.57;4.22;;;;;;;45.70;12.06;100141.81;5031210;28;20048;-56
2022/06/02 06:01:57;;;;;;;8.43;3.85;;;;;;;46.32;11.30;100138.03;5031031;28;20037;-58
2022/06/02 06:04:34;;;;;;;7.75;4.30;;;;;;;47.03;11.11;100133.88;5030495;28;20370;-56
2022/06/02 06:07:26;;;;;;;9.55;4.68;;;;;;;48.06;11.03;100136.75;5030706;28;20037;-57
2022/06/02 06:10:06;;;;;;;11.73;4.80;;;;;;;48.22;10.09;100133.84;5022074;28;20037;-58
2022/06/02 06:12:41;;;;;;;6.22;4.45;;;;;;;48.96;10.03;100137.72;5030659;28;20397;-56
2022/06/02 06:15:19;;;;;;;7.43;4.63;;;;;;;48.81;9.79;100141.50;5029562;28;20959;-60
2022/06/02 06:17:53;;;;;;;10.77;5.07;;;;;;;48.51;9.75;100136.47;5030824;28;20037;-54
2022/06/02 06:20:43;;;;;;;8.73;4.28;;;;;;;49.70;9.51;100141.34;5030818;28;20037;-58
2022/06/02 06:23:40;;;;;;;8.73;4.90;;;;;;;50.72;8.85;100136.09;5031068;28;20051;-58
2022/06/02 06:26:14;;;;;;;7.90;4.53;;;;;;;50.37;9.10;100143.84;5030392;28;20084;-56
2022/06/02 06:29:09;;;;;;;7.70;4.82;;;;;;;49.94;8.91;100129.91;5030454;28;20116;-55
2022/06/02 06:31:44;;;;;;;;;;;;;;;52.04;8.94;100133.81;5031442;28;20083;-58
2022/06/02 06:34:18;;;;;;;12.13;5.18;;;;;;;50.26;9.06;100126.66;5030070;28;20290;-58
2022/06/02 06:37:08;;;;;;;6.05;4.63;;;;;;;50.09;9.10;100123.16;5015897;28;20048;-58
2022/06/02 06:40:07;;;;;;;8.38;5.20;;;;;;;51.37;8.28;100119.53;5031020;28;20507;-57
2022/06/02 06:42:36;;;;;;;11.07;6.10;;;;;;;51.13;8.48;100138.94;5030789;28;20033;-57
2022/06/02 06:45:03;;;;;;;8.60;5.38;;;;;;;50.92;8.08;100123.25;5028517;28;20393;-59
2022/06/02 06:47:52;;;;;;;9.73;5.50;;;;;;;52.50;8.18;100126.63;5030756;28;20043;-58
2022/06/02 06:50:39;;;;;;;12.27;5.70;;;;;;;52.07;8.09;100122.41;5027090;28;20048;-55
2022/06/02 06:53:31;;;;;;;7.95;5.30;;;;;;;50.17;8.54;100106.19;5030576;28;20112;-54
2022/06/02 06:56:15;;;;;;;7.88;5.38;;;;;;;49.99;9.15;100118.16;5010595;28;20034;-59
2022/06/02 06:59:21;;;;;;;5.85;4.90;;;;;;;50.98;8.99;100109.47;5027812;28;20040;-59
2022/06/02 07:01:55;;;;;;;6.55;5.68;;;;;;;50.36;9.04;100103.16;5010560;28;20158;-61
2022/06/02 07:04:36;;;;;;;11.07;5.13;;;;;;;50.34;8.64;100102.72;5010308;28;20029;-59
2022/06/02 07:07:19;;;;;;;6.93;5.20;;;;;;;51.91;7.93;100125.56;5010536;28;20518;-60
2022/06/02 07:10:13;;;;;;;6.53;5.28;;;;;;;51.80;7.90;100108.41;5021186;28;20150;-57
2022/06/02 07:12:58;;;;;;;11.75;6.50;;;;;;;53.22;7.67;100118.09;5020353;28;20398;-58
2022/06/02 07:15:37;;;;;;;6.43;5.75;;;;;;;52.67;8.00;100125.84;5030158;28;20565;-63
2022/06/02 07:18:30;;;;;;;8.63;6.00;;;;;;;53.29;7.47;100137.31;5029734;28;20412;-61
2022/06/02 07:21:14;;;;;;;7.83;6.33;;;;;;;52.68;7.85;100133.22;5029924;28;20036;-59
2022/06/02 07:23:40;;;;;;;6.93;5.80;;;;;;;51.04;8.62;100124.19;5031995;28;20061;-61
2022/06/02 07:26:28;;;;;;;7.83;5.70;;;;;;;52.37;7.57;100129.03;5033725;28;20079;-59
2022/06/02 07:29:10;;;;;;;8.55;6.20;;;;;;;52.69;7.32;100128.31;5014570;28;20022;-59
2022/06/02 07:31:55;;;;;;;9.55;5.45;;;;;;;53.70;7.39;100138.88;5013321;28;20030;-59
2022/06/02 07:34:23;;;;;;;7.40;6.57;;;;;;;52.32;7.48;100129.41;5019176;28;20099;-61
2022/06/02 07:37:33;;;;;;;7.75;6.03;;;;;;;53.56;7.90;100147.50;5033566;28;20141;-59
2022/06/02 07:40:24;;;;;;;10.35;6.30;;;;;;;52.78;7.59;100136.47;5015935;28;20038;-62
2022/06/02 07:43:22;;;;;;;7.80;5.68;;;;;;;53.84;7.37;100132.28;5041583;28;20038;-60
2022/06/02 07:45:55;;;;;;;8.13;5.85;;;;;;;53.33;7.45;100140.16;5033142;28;20040;-61
2022/06/02 07:48:50;;;;;;;6.90;5.70;;;;;;;52.50;7.66;100140.91;5033222;28;20489;-61
2022/06/02 07:51:26;;;;;;;6.22;5.55;;;;;;;49.75;9.55;100125.97;5013229;28;20272;-60
2022/06/02 07:54:29;;;;;;;6.03;5.13;;;;;;;48.47;10.68;100132.72;5016659;28;20033;-60
2022/06/02 07:57:07;;;;;;;5.07;4.55;;;;;;;47.48;11.11;100112.72;5033297;28;20473;-60
2022/06/02 07:59:57;;;;;;;6.75;4.82;;;;;;;48.70;9.81;100127.88;5033065;28;20108;-60
2022/06/02 08:02:38;;;;;;;6.15;4.80;;;;;;;49.39;9.64;100114.88;5032769;28;20413;-60
2022/06/02 08:05:19;;;;;;;7.40;4.72;;;;;;;48.73;10.05;100105.63;5033245;28;20041;-61
2022/06/02 08:07:59;;;;;;;4.80;3.75;;;;;;;48.69;9.99;100123.38;5032595;28;20419;-59
2022/06/02 08:10:33;;;;;;;6.90;4.40;;;;;;;46.06;12.02;100116.59;5032688;28;20504;-58
2022/06/02 08:13:24;;;;;;;6.25;4.20;;;;;;;45.28;12.82;100111.75;5033158;28;20036;-59
2022/06/02 08:16:14;;;;;;;6.65;4.63;;;;;;;46.39;11.93;100112.75;5032791;28;20053;-59
2022/06/02 08:18:56;;;;;;;5.40;4.35;;;;;;;45.16;12.75;100111.78;5032349;28;20485;-61
2022/06/02 08:21:41;;;;;;;5.15;3.97;;;;;;;43.20;14.00;100115.69;5032409;28;20434;-60
2022/06/02 08:24:13;;;;;;;6.53;3.70;;;;;;;40.77;16.67;100120.38;5032280;28;20026;-60
2022/06/02 08:26:54;;;;;;;7.55;4.32;;;;;;;38.65;18.99;100118.06;5032855;28;20065;-58
2022/06/02 08:29:32;;;;;;;7.15;4.00;;;;;;;37.26;20.35;100118.81;5032807;28;20077;-59
2022/06/02 08:32:19;;;;;;;7.95;3.72;;;;;;;36.12;21.63;100119.75;5032254;28;20061;-60
2022/06/02 08:35:17;;;;;;;5.38;3.47;;;;;;;35.10;22.43;100119.03;5032513;28;20095;-61
2022/06/02 08:38:22;;;;;;;5.10;3.63;;;;;;;33.99;23.97;100124.78;5020252;28;20401;-57
2022/06/02 08:40:48;;;;;;;5.07;3.20;;;;;;;32.96;26.94;100116.72;5029585;28;20049;-59
2022/06/02 08:43:19;;;;;;;4.53;3.35;;;;;;;32.43;27.63;100122.09;5032847;28;20369;-59
2022/06/02 08:46:15;;;;;;;3.85;3.45;;;;;;;32.36;26.69;100125.91;5032263;28;20061;-59
2022/06/02 08:49:15;;;;;;;5.75;3.67;;;;;;;32.30;27.32;100135.25;5032770;28;20501;-62
2022/06/02 08:52:13;;;;;;;7.20;3.70;;;;;;;32.22;26.45;100131.00;5031203;28;20045;-64
2022/06/02 08:54:54;;;;;;;7.95;3.25;;;;;;;31.89;28.36;100127.34;5021263;28;20474;-63
2022/06/02 08:57:57;;;;;;;6.35;3.40;;;;;;;31.90;27.38;100123.47;5027223;28;20040;-60
2022/06/02 09:00:28;;;;;;;4.55;2.92;;;;;;;31.80;28.67;100123.34;5012316;28;20038;-61
2022/06/02 09:03:13;;;;;;;5.25;3.08;;;;;;;31.90;27.83;100123.47;5012346;28;20448;-60
2022/06/02 09:05:58;;;;;;;5.28;2.67;;;;;;;31.76;28.27;100125.81;5029603;28;20021;-61
2022/06/02 09:08:57;;;;;;;5.25;2.90;;;;;;;31.53;28.55;100124.09;5030760;28;20042;-61
2022/06/02 09:11:25;;;;;;;8.82;3.63;;;;;;;31.17;29.90;100126.34;5031110;28;20021;-60
2022/06/02 09:14:09;;;;;;;7.38;3.08;;;;;;;30.90;30.67;100104.94;5032266;28;20041;-61
2022/06/02 09:16:57;;;;;;;6.63;2.78;;;;;;;30.94;29.55;100120.75;5031674;28;20130;-63
2022/06/02 09:19:45;;;;;;;6.57;3.10;;;;;;;30.83;30.27;100126.34;5031534;28;20033;-60
2022/06/02 09:22:10;;;;;;;4.85;3.40;;;;;;;30.49;31.85;100111.44;5012354;28;20038;-58
2022/06/02 09:25:14;;;;;;;5.57;3.10;;;;;;;30.69;30.52;100118.44;5014510;28;20035;-63
2022/06/02 09:27:59;;;;;;;9.25;3.22;;;;;;;30.53;32.15;100111.78;5031466;28;20056;-55
2022/06/02 09:30:43;;;;;;;8.95;2.95;;;;;;;30.98;30.16;100107.25;5031165;28;20037;-61
2022/06/02 09:36:10;;;;;;;6.97;3.00;;;;;;;31.01;30.59;100103.97;5029714;28;20064;-58
2022/06/02 09:38:44;;;;;;;3.20;2.80;;;;;;;30.90;30.53;100105.75;5031395;28;20096;-61
2022/06/02 09:41:28;;;;;;;6.63;2.75;;;;;;;30.77;31.01;100092.31;5030752;28;20034;-60
2022/06/02 09:44:05;;;;;;;3.97;2.72;;;;;;;30.98;30.54;100101.72;5031011;28;20040;-59
2022/06/02 09:46:40;;;;;;;6.85;3.22;;;;;;;30.92;30.70;100089.75;5030388;28;20473;-61
2022/06/02 09:49:23;;;;;;;5.18;3.10;;;;;;;30.84;30.40;100089.34;5030986;28;20040;-60
2022/06/02 09:52:04;;;;;;;4.82;2.92;;;;;;;30.59;31.01;100098.88;5030752;28;20034;-61
2022/06/02 09:54:32;;;;;;;5.05;3.08;;;;;;;30.26;31.95;100089.47;5018766;28;20041;-60
2022/06/02 09:58:02;;;;;;;6.07;3.05;;;;;;;29.86;32.96;100086.50;5028907;28;20047;-64
2022/06/02 10:00:17;;;;;;;6.72;3.25;;;;;;;29.82;32.84;100082.56;5032733;28;20424;-64
2022/06/02 10:03:00;;;;;;;6.03;2.90;;;;;;;29.75;33.33;100084.63;5030414;28;20112;-59
2022/06/02 10:05:40;;;;;;;5.38;3.25;;;;;;;29.87;32.67;100076.31;5014088;28;20034;-57
2022/06/02 10:08:19;;;;;;;3.42;2.83;;;;;;;29.84;32.82;100071.28;5017898;28;20377;-60
2022/06/02 10:11:08;;;;;;;4.32;3.10;;;;;;;29.49;33.23;100053.78;5020849;28;20405;-60
2022/06/02 10:13:54;;;;;;;3.80;3.00;;;;;;;29.61;32.63;100035.25;5031173;28;20099;-57
2022/06/02 10:16:38;;;;;;;8.95;3.30;;;;;;;29.96;32.64;100057.44;5030771;28;20110;-62
2022/06/02 10:19:37;;;;;;;4.18;3.35;;;;;;;30.08;32.77;100060.97;5030494;28;20542;-60
2022/06/02 10:22:21;;;;;;;3.45;3.15;;;;;;;30.09;32.78;100062.66;5030340;28;20481;-61
2022/06/02 10:25:07;;;;;;;4.90;3.20;;;;;;;30.04;32.94;100060.66;5030620;28;20040;-58
2022/06/02 10:27:41;;;;;;;3.60;3.30;;;;;;;30.34;32.64;100069.72;5030955;28;20087;-57
2022/06/02 10:30:44;;;;;;;7.53;3.70;;;;;;;30.70;31.24;100066.75;5030933;28;20034;-59
2022/06/02 10:33:19;;;;;;;5.93;3.30;;;;;;;30.82;31.50;100059.22;5028584;28;20033;-58
2022/06/02 10:36:16;;;;;;;5.18;3.25;;;;;;;31.09;31.02;100055.72;5030591;28;20481;-64
2022/06/02 10:39:01;;;;;;;4.75;3.15;;;;;;;31.27;30.27;100062.91;5029791;28;20033;-60
2022/06/02 10:41:45;;;;;;;3.50;3.20;;;;;;;31.29;30.17;100052.41;5028178;28;20428;-60
2022/06/02 10:44:19;;;;;;;3.65;3.03;;;;;;;31.10;31.26;100057.38;5030082;28;20064;-62
2022/06/02 10:47:13;;;;;;;4.25;3.58;;;;;;;31.21;30.48;100037.09;5030343;28;20458;-60
2022/06/02 10:50:16;;;;;;;5.38;3.00;;;;;;;31.10;30.82;100031.66;5030457;28;20064;-60
2022/06/02 10:53:00;;;;;;;7.30;3.00;;;;;;;31.28;30.52;100044.38;5022384;28;20490;-59
2022/06/02 10:55:37;;;;;;;4.78;3.30;;;;;;;30.97;31.37;100044.78;5009854;28;20481;-56
2022/06/02 10:58:24;;;;;;;6.40;3.22;;;;;;;30.88;30.96;100072.00;5024041;28;20033;-59
2022/06/02 11:01:26;;;;;;;6.13;3.33;;;;;;;30.87;30.73;100055.69;5034252;28;20048;-58
2022/06/02 11:04:29;;;;;;;5.32;3.30;;;;;;;30.77;31.55;100067.44;5014209;28;20044;-59
2022/06/02 11:07:17;;;;;;;3.75;3.38;;;;;;;30.62;31.66;100068.84;5014655;28;20041;-63
2022/06/02 11:10:21;;;;;;;9.18;3.40;;;;;;;30.74;31.50;100054.94;5024697;28;20084;-59
2022/06/02 11:13:08;;;;;;;4.20;3.42;;;;;;;30.53;32.10;100052.91;5034324;28;20026;-61
2022/06/02 11:15:54;;;;;;;4.68;3.38;;;;;;;30.43;32.02;100057.19;5033927;28;20049;-61
2022/06/02 11:18:50;;;;;;;6.13;3.55;;;;;;;30.38;32.23;100054.31;5032352;28;20041;-60
2022/06/02 11:21:44;;;;;;;4.40;3.00;;;;;;;30.17;32.16;100055.91;5033760;28;20099;-61
2022/06/02 11:24:37;;;;;;;6.60;3.58;;;;;;;29.77;32.37;100060.38;5033463;28;20116;-60
2022/06/02 11:27:41;;;;;;;7.53;3.65;;;;;;;29.43;33.70;100043.72;5032377;28;20025;-55
2022/06/02 11:30:44;;;;;;;4.90;3.65;;;;;;;29.49;33.35;100053.78;5013335;28;20450;-58
2022/06/02 11:33:32;;;;;;;4.53;3.63;;;;;;;29.42;33.07;100029.06;5032542;28;20040;-60
2022/06/02 11:36:26;;;;;;;6.43;3.47;;;;;;;29.67;32.74;100060.19;5033494;28;20120;-57
2022/06/02 11:39:10;;;;;;;6.65;3.83;;;;;;;29.70;32.56;100051.44;5032547;28;20040;-59
2022/06/02 11:41:50;;;;;;;8.40;3.80;;;;;;;29.64;33.04;100044.97;5032947;28;20107;-59
2022/06/02 11:44:33;;;;;;;5.35;3.45;;;;;;;29.86;32.94;100053.38;5033568;28;20069;-57
2022/06/02 11:47:05;;;;;;;4.65;3.67;;;;;;;29.96;32.03;100047.22;5033946;28;20030;-60
2022/06/02 11:49:36;;;;;;;5.55;3.40;;;;;;;30.22;32.04;100051.31;5033152;28;20069;-59
2022/06/02 11:52:15;;;;;;;6.22;3.17;;;;;;;30.21;31.49;100033.06;5033133;28;20120;-56
2022/06/02 11:54:56;;;;;;;5.78;3.70;;;;;;;30.29;31.55;100045.63;5032974;28;20076;-59
2022/06/02 11:57:40;;;;;;;5.40;3.20;;;;;;;30.00;32.32;100042.03;5031798;28;20037;-60
2022/06/02 12:00:21;;;;;;;3.95;3.58;;;;;;;30.00;32.12;100042.88;5032914;28;20029;-60
2022/06/02 12:03:15;;;;;;;5.25;3.10;;;;;;;30.16;31.33;100052.31;5032899;28;20108;-61
2022/06/02 12:05:40;;;;;;;6.07;3.35;;;;;;;29.87;32.29;100032.97;5032722;28;20034;-61
2022/06/02 12:08:21;;;;;;;4.05;3.40;;;;;;;30.03;31.77;100052.63;5032265;28;20041;-59
2022/06/02 12:11:11;;;;;;;5.30;3.53;;;;;;;29.76;32.35;100044.91;5032424;28;20045;-58
2022/06/02 12:14:01;;;;;;;5.82;3.55;;;;;;;29.81;31.99;100047.75;5032532;28;20033;-58
2022/06/02 12:16:48;;;;;;;5.60;3.40;;;;;;;29.58;32.25;100046.78;5032854;28;20050;-57
2022/06/02 12:19:31;;;;;;;3.55;3.08;;;;;;;29.69;31.89;100052.50;5032907;28;20160;-61
2022/06/02 12:22:22;;;;;;;5.28;3.22;;;;;;;29.52;31.88;100025.69;5032436;28;20037;-60
2022/06/02 12:24:54;;;;;;;5.43;2.97;;;;;;;29.51;31.96;100046.09;5021069;28;20033;-61
2022/06/02 12:27:38;;;;;;;4.25;3.58;;;;;;;29.47;32.02;100040.22;5032987;28;20096;-61
2022/06/02 12:30:09;;;;;;;5.85;3.20;;;;;;;29.33;32.45;100039.63;5031140;28;20113;-61
2022/06/02 12:33:02;;;;;;;8.35;3.28;;;;;;;29.42;32.19;100025.47;5031603;28;20055;-61
2022/06/02 12:36:03;;;;;;;4.47;3.30;;;;;;;29.37;32.57;100024.25;5032949;28;20499;-60
2022/06/02 12:38:42;;;;;;;4.72;2.92;;;;;;;29.32;32.79;100026.91;5032552;28;20526;-59
2022/06/02 12:41:16;;;;;;;4.70;3.03;;;;;;;29.15;33.10;100031.50;5031122;28;20386;-59
2022/06/02 12:44:02;;;;;;;6.75;3.30;;;;;;;29.18;33.45;100026.34;5032725;28;20033;-59
2022/06/02 12:46:52;;;;;;;3.88;3.33;;;;;;;29.04;33.47;100022.16;5032786;28;20029;-61
2022/06/02 12:49:36;;;;;;;5.28;3.28;;;;;;;29.05;33.50;100030.22;5032298;28;20044;-60
2022/06/02 12:53:06;;;;;;;5.30;3.58;;;;;;;29.13;32.90;100014.38;5032093;28;20029;-60
2022/06/02 12:55:37;;;;;;;4.32;3.00;;;;;;;29.04;33.10;100022.16;5010524;28;20037;-61